sensor_id;sensor_type;location;lat;lon;timestamp;pressure;altitude;pressure_sealevel;temperature;humidity
4123;BME280;2075;51.062;6.920;2023-04-01T00:01:56;48088.88;;;-144.48;100.00
4123;BME280;2075;51.062;6.920;2023-04-01T00:04:41;52196.44;;;-144.48;100.00
4123;BME280;2075;51.062;6.920;2023-04-01T00:07:27;51939.56;;;-144.48;100.00
4123;BME280;2075;51.062;6.920;2023-04-01T00:10:13;52453.31;;;-144.48;100.00
4123;BME280;2075;51.062;6.920;2023-04-01T00:12:58;53481.06;;;-144.48;100.00
4123;BME280;2075;51.062;6.920;2023-04-01T00:15:45;59139.22;;;-144.48;100.00
4123;BME280;2075;51.062;6.920;2023-04-01T00:18:30;59911.53;;;-144.48;100.00
4123;BME280;2075;51.062;6.920;2023-04-01T00:21:16;63002.50;;;-144.48;100.00
4123;BME280;2075;51.062;6.920;2023-04-01T00:24:04;65064.69;;;-144.48;100.00
4123;BME280;2075;51.062;6.920;2023-04-01T00:26:49;64806.84;;;-144.48;100.00
4123;BME280;2075;51.062;6.920;2023-04-01T00:29:35;68418.44;;;-144.48;100.00
4123;BME280;2075;51.062;6.920;2023-04-01T00:32:22;64033.44;;;-144.48;100.00
4123;BME280;2075;51.062;6.920;2023-04-01T00:35:08;59911.53;;;-144.48;100.00
4123;BME280;2075;51.062;6.920;2023-04-01T00:37:54;59139.22;;;-144.48;100.00
4123;BME280;2075;51.062;6.920;2023-04-01T00:40:41;60684.00;;;-144.48;100.00
4123;BME280;2075;51.062;6.920;2023-04-01T00:43:27;59396.66;;;-144.48;100.00
4123;BME280;2075;51.062;6.920;2023-04-01T00:46:13;60169.00;;;-144.48;100.00
4123;BME280;2075;51.062;6.920;2023-04-01T00:48:59;60941.53;;;-144.48;100.00
4123;BME280;2075;51.062;6.920;2023-04-01T00:51:48;64549.03;;;-144.48;100.00
4123;BME280;2075;51.062;6.920;2023-04-01T00:54:36;61971.84;;;-144.48;100.00
4123;BME280;2075;51.062;6.920;2023-04-01T00:57:26;62487.13;;;-144.48;100.00
4123;BME280;2075;51.062;6.920;2023-04-01T01:00:14;63002.50;;;-144.48;100.00
4123;BME280;2075;51.062;6.920;2023-04-01T01:03:00;63002.50;;;-144.48;100.00
4123;BME280;2075;51.062;6.920;2023-04-01T01:06:08;55537.47;;;-144.48;100.00
4123;BME280;2075;51.062;6.920;2023-04-01T01:09:25;48345.44;;;-144.48;100.00
4123;BME280;2075;51.062;6.920;2023-04-01T01:12:18;45524.19;;;-144.48;100.00
4123;BME280;2075;51.062;6.920;2023-04-01T01:15:10;41168.72;;;-144.48;100.00
4123;BME280;2075;51.062;6.920;2023-04-01T01:18:02;42193.03;;;-144.48;100.00
4123;BME280;2075;51.062;6.920;2023-04-01T01:24:30;43730.06;;;-144.48;100.00
4123;BME280;2075;51.062;6.920;2023-04-01T01:27:23;43986.31;;;-144.48;100.00
4123;BME280;2075;51.062;6.920;2023-04-01T01:30:18;40144.72;;;-144.48;100.00
4123;BME280;2075;51.062;6.920;2023-04-01T01:33:25;38353.47;;;-144.48;100.00
4123;BME280;2075;51.062;6.920;2023-04-01T01:36:19;40400.69;;;-144.48;100.00
4123;BME280;2075;51.062;6.920;2023-04-01T01:39:07;44755.16;;;-144.48;100.00
4123;BME280;2075;51.062;6.920;2023-04-01T01:41:55;43730.06;;;-144.48;100.00
4123;BME280;2075;51.062;6.920;2023-04-01T01:44:44;41424.75;;;-144.48;100.00
4123;BME280;2075;51.062;6.920;2023-04-01T01:47:32;38865.16;;;-144.48;100.00
4123;BME280;2075;51.062;6.920;2023-04-01T01:50:19;38353.47;;;-144.48;100.00
4123;BME280;2075;51.062;6.920;2023-04-01T01:53:09;34007.25;;;-144.48;100.00
4123;BME280;2075;51.062;6.920;2023-04-01T01:55:55;30177.06;;;-144.48;100.00
4123;BME280;2075;51.062;6.920;2023-04-01T01:58:43;25331.78;;;-144.48;100.00
4123;BME280;2075;51.062;6.920;2023-04-01T02:01:37;19221.47;;;-144.48;100.00
4123;BME280;2075;51.062;6.920;2023-04-01T02:04:28;15916.41;;;-144.48;100.00
4123;BME280;2075;51.062;6.920;2023-04-01T02:07:18;11599.41;;;-144.48;100.00
4123;BME280;2075;51.062;6.920;2023-04-01T02:10:07;11091.88;;;-144.48;100.00
4123;BME280;2075;51.062;6.920;2023-04-01T02:12:57;8555.47;;;-144.48;100.00
4123;BME280;2075;51.062;6.920;2023-04-01T02:15:46;6527.75;;;-144.48;100.00
4123;BME280;2075;51.062;6.920;2023-04-01T02:18:34;5767.69;;;-144.48;100.00
4123;BME280;2075;51.062;6.920;2023-04-01T02:21:22;3994.88;;;-144.48;100.00
4123;BME280;2075;51.062;6.920;2023-04-01T02:24:12;1969.97;;;-144.48;100.00
4123;BME280;2075;51.062;6.920;2023-04-01T02:27:00;2223.00;;;-144.48;100.00
4123;BME280;2075;51.062;6.920;2023-04-01T02:29:46;1210.94;;;-144.48;100.00
4123;BME280;2075;51.062;6.920;2023-04-01T02:32:33;957.97;;;-144.48;100.00
4123;BME280;2075;51.062;6.920;2023-04-01T02:35:22;957.97;;;-144.48;100.00
4123;BME280;2075;51.062;6.920;2023-04-01T02:38:08;-53.69;;;-144.48;100.00
4123;BME280;2075;51.062;6.920;2023-04-01T02:40:57;-1570.63;;;-144.48;100.00
4123;BME280;2075;51.062;6.920;2023-04-01T02:43:45;-1570.63;;;-144.48;100.00
4123;BME280;2075;51.062;6.920;2023-04-01T02:46:30;-812.25;;;-144.48;100.00
4123;BME280;2075;51.062;6.920;2023-04-01T02:49:16;-1317.84;;;-144.48;100.00
4123;BME280;2075;51.062;6.920;2023-04-01T02:52:01;-2328.84;;;-144.48;100.00
4123;BME280;2075;51.062;6.920;2023-04-01T02:54:46;-2581.53;;;-144.48;100.00
4123;BME280;2075;51.062;6.920;2023-04-01T02:57:32;-2076.13;;;-144.48;100.00
4123;BME280;2075;51.062;6.920;2023-04-01T03:00:19;-2076.13;;;-144.48;100.00
4123;BME280;2075;51.062;6.920;2023-04-01T03:03:04;-2834.19;;;-144.48;100.00
4123;BME280;2075;51.062;6.920;2023-04-01T03:05:49;-2076.13;;;-144.48;100.00
4123;BME280;2075;51.062;6.920;2023-04-01T03:08:36;-2328.84;;;-144.48;100.00
4123;BME280;2075;51.062;6.920;2023-04-01T03:11:22;-559.44;;;-144.48;100.00
4123;BME280;2075;51.062;6.920;2023-04-01T03:14:08;199.19;;;-144.48;100.00
4123;BME280;2075;51.062;6.920;2023-04-01T03:16:54;-306.56;;;-144.48;100.00
4123;BME280;2075;51.062;6.920;2023-04-01T03:19:40;-559.44;;;-144.48;100.00
4123;BME280;2075;51.062;6.920;2023-04-01T03:22:27;-53.69;;;-144.48;100.00
4123;BME280;2075;51.062;6.920;2023-04-01T03:25:12;-53.69;;;-144.48;100.00
4123;BME280;2075;51.062;6.920;2023-04-01T03:27:58;-53.69;;;-144.48;100.00
4123;BME280;2075;51.062;6.920;2023-04-01T03:30:44;957.97;;;-144.48;100.00
4123;BME280;2075;51.062;6.920;2023-04-01T03:33:30;3235.38;;;-144.48;100.00
4123;BME280;2075;51.062;6.920;2023-04-01T03:36:16;5007.78;;;-144.48;100.00
4123;BME280;2075;51.062;6.920;2023-04-01T03:39:02;7541.47;;;-144.48;100.00
4123;BME280;2075;51.062;6.920;2023-04-01T03:41:56;7288.00;;;-144.48;100.00
4123;BME280;2075;51.062;6.920;2023-04-01T03:44:42;6021.03;;;-144.48;100.00
4123;BME280;2075;51.062;6.920;2023-04-01T03:47:28;4754.53;;;-144.48;100.00
4123;BME280;2075;51.062;6.920;2023-04-01T03:50:15;4248.06;;;-144.48;100.00
4123;BME280;2075;51.062;6.920;2023-04-01T03:53:01;3741.69;;;-144.48;100.00
4123;BME280;2075;51.062;6.920;2023-04-01T03:55:46;1969.97;;;-144.48;100.00
4123;BME280;2075;51.062;6.920;2023-04-01T03:58:33;452.09;;;-144.48;100.00
4123;BME280;2075;51.062;6.920;2023-04-01T04:01:21;-2076.13;;;-144.48;100.00
4123;BME280;2075;51.062;6.920;2023-04-01T04:04:11;-4349.84;;;-144.48;100.00
4123;BME280;2075;51.062;6.920;2023-04-01T04:06:58;-5359.88;;;-144.48;100.00
4123;BME280;2075;51.062;6.920;2023-04-01T04:09:44;-6874.34;;;-144.48;100.00
4123;BME280;2075;51.062;6.920;2023-04-01T04:12:30;-7631.31;;;-144.48;100.00
4123;BME280;2075;51.062;6.920;2023-04-01T04:15:15;-8135.88;;;-144.48;100.00
4123;BME280;2075;51.062;6.920;2023-04-01T04:18:00;-7883.59;;;-144.48;100.00
4123;BME280;2075;51.062;6.920;2023-04-01T04:20:46;-8135.88;;;-144.48;100.00
4123;BME280;2075;51.062;6.920;2023-04-01T04:23:36;-8640.34;;;-144.48;100.00
4123;BME280;2075;51.062;6.920;2023-04-01T04:26:21;-8640.34;;;-144.48;100.00
4123;BME280;2075;51.062;6.920;2023-04-01T04:29:13;-8388.09;;;-144.48;100.00
4123;BME280;2075;51.062;6.920;2023-04-01T04:31:58;-8388.09;;;-144.48;100.00
4123;BME280;2075;51.062;6.920;2023-04-01T04:34:44;-8892.53;;;-144.48;100.00
4123;BME280;2075;51.062;6.920;2023-04-01T04:37:29;-9144.72;;;-144.48;100.00
4123;BME280;2075;51.062;6.920;2023-04-01T04:40:16;-8892.53;;;-144.48;100.00
4123;BME280;2075;51.062;6.920;2023-04-01T04:43:02;-8892.53;;;-144.48;100.00
4123;BME280;2075;51.062;6.920;2023-04-01T04:45:47;-8892.53;;;-144.48;100.00
4123;BME280;2075;51.062;6.920;2023-04-01T04:48:33;-9144.72;;;-144.48;100.00
4123;BME280;2075;51.062;6.920;2023-04-01T04:51:20;-9396.91;;;-144.48;100.00
4123;BME280;2075;51.062;6.920;2023-04-01T04:54:06;-9649.03;;;-144.48;100.00
4123;BME280;2075;51.062;6.920;2023-04-01T04:57:22;-9901.19;;;-144.48;100.00
4123;BME280;2075;51.062;6.920;2023-04-01T05:00:12;-10153.28;;;-144.48;100.00
4123;BME280;2075;51.062;6.920;2023-04-01T05:03:11;-10405.38;;;-144.48;100.00
4123;BME280;2075;51.062;6.920;2023-04-01T05:05:56;-10405.38;;;-144.48;100.00
4123;BME280;2075;51.062;6.920;2023-04-01T05:08:45;-10657.44;;;-144.48;100.00
4123;BME280;2075;51.062;6.920;2023-04-01T05:11:31;-10909.50;;;-144.48;100.00
4123;BME280;2075;51.062;6.920;2023-04-01T05:14:17;-10657.44;;;-144.48;100.00
4123;BME280;2075;51.062;6.920;2023-04-01T05:17:12;-10909.50;;;-144.48;100.00
4123;BME280;2075;51.062;6.920;2023-04-01T05:19:58;-10909.50;;;-144.48;100.00
4123;BME280;2075;51.062;6.920;2023-04-01T05:22:44;-11413.53;;;-144.48;100.00
4123;BME280;2075;51.062;6.920;2023-04-01T05:25:29;-11665.53;;;-144.48;100.00
4123;BME280;2075;51.062;6.920;2023-04-01T05:28:15;-11667.00;;;-144.48;100.00
4123;BME280;2075;51.062;6.920;2023-04-01T05:31:05;-11667.00;;;-144.48;100.00
4123;BME280;2075;51.062;6.920;2023-04-01T05:33:57;-11667.00;;;-144.48;100.00
4123;BME280;2075;51.062;6.920;2023-04-01T05:36:42;-11667.00;;;-144.48;100.00
4123;BME280;2075;51.062;6.920;2023-04-01T05:39:27;-11667.00;;;-144.48;100.00
4123;BME280;2075;51.062;6.920;2023-04-01T05:42:13;-11667.00;;;-144.48;100.00
4123;BME280;2075;51.062;6.920;2023-04-01T05:44:59;-11667.00;;;-144.48;100.00
4123;BME280;2075;51.062;6.920;2023-04-01T05:48:05;-11667.00;;;-144.48;100.00
4123;BME280;2075;51.062;6.920;2023-04-01T05:50:56;-11667.00;;;-144.48;100.00
4123;BME280;2075;51.062;6.920;2023-04-01T05:53:42;-11667.00;;;-144.48;100.00
4123;BME280;2075;51.062;6.920;2023-04-01T05:56:27;-11667.00;;;-144.48;100.00
4123;BME280;2075;51.062;6.920;2023-04-01T05:59:13;-11667.00;;;-144.48;100.00
4123;BME280;2075;51.062;6.920;2023-04-01T06:01:59;-11667.00;;;-144.48;100.00
4123;BME280;2075;51.062;6.920;2023-04-01T06:04:45;-11667.00;;;-144.48;100.00
4123;BME280;2075;51.062;6.920;2023-04-01T06:07:31;-11667.00;;;-144.48;100.00
4123;BME280;2075;51.062;6.920;2023-04-01T06:10:18;-11667.00;;;-144.48;100.00
4123;BME280;2075;51.062;6.920;2023-04-01T06:13:07;-11667.00;;;-144.48;100.00
4123;BME280;2075;51.062;6.920;2023-04-01T06:16:03;-11667.00;;;-144.48;100.00
4123;BME280;2075;51.062;6.920;2023-04-01T06:18:59;-11665.53;;;-144.48;100.00
4123;BME280;2075;51.062;6.920;2023-04-01T06:22:06;-11413.53;;;-144.48;100.00
4123;BME280;2075;51.062;6.920;2023-04-01T06:25:21;-10657.44;;;-144.48;100.00
4123;BME280;2075;51.062;6.920;2023-04-01T06:28:43;-9649.03;;;-144.48;100.00
4123;BME280;2075;51.062;6.920;2023-04-01T06:31:44;-8640.34;;;-144.48;100.00
4123;BME280;2075;51.062;6.920;2023-04-01T06:34:45;-7883.59;;;-144.48;100.00
4123;BME280;2075;51.062;6.920;2023-04-01T06:41:22;-8640.34;;;-144.48;100.00
4123;BME280;2075;51.062;6.920;2023-04-01T06:44:17;-8135.88;;;-144.48;100.00
4123;BME280;2075;51.062;6.920;2023-04-01T06:47:36;-6117.19;;;-144.48;100.00
4123;BME280;2075;51.062;6.920;2023-04-01T06:50:50;-4854.91;;;-144.48;100.00
4123;BME280;2075;51.062;6.920;2023-04-01T06:54:04;-5107.41;;;-144.48;100.00
4123;BME280;2075;51.062;6.920;2023-04-01T06:57:26;-4602.38;;;-144.48;100.00
4123;BME280;2075;51.062;6.920;2023-04-01T07:00:19;-5612.34;;;-144.48;100.00
4123;BME280;2075;51.062;6.920;2023-04-01T07:03:16;-5864.78;;;-144.48;100.00
4123;BME280;2075;51.062;6.920;2023-04-01T07:06:06;-5612.34;;;-144.48;100.00
4123;BME280;2075;51.062;6.920;2023-04-01T07:09:05;-6369.59;;;-144.48;100.00
4123;BME280;2075;51.062;6.920;2023-04-01T07:12:15;-7126.69;;;-144.48;100.00
4123;BME280;2075;51.062;6.920;2023-04-01T07:15:26;-9649.03;;;-144.48;100.00
4123;BME280;2075;51.062;6.920;2023-04-01T07:18:17;-10909.50;;;-144.48;100.00
4123;BME280;2075;51.062;6.920;2023-04-01T07:21:16;-10657.44;;;-144.48;100.00
4123;BME280;2075;51.062;6.920;2023-04-01T07:24:11;-10657.44;;;-144.48;100.00
4123;BME280;2075;51.062;6.920;2023-04-01T07:27:08;-11161.53;;;-144.48;100.00
4123;BME280;2075;51.062;6.920;2023-04-01T07:29:56;-11161.53;;;-144.48;100.00
4123;BME280;2075;51.062;6.920;2023-04-01T07:32:44;-11161.53;;;-144.48;100.00
4123;BME280;2075;51.062;6.920;2023-04-01T07:35:33;-11665.53;;;-144.48;100.00
4123;BME280;2075;51.062;6.920;2023-04-01T07:38:26;-11665.53;;;-144.48;100.00
4123;BME280;2075;51.062;6.920;2023-04-01T07:41:24;-11665.53;;;-144.48;100.00
4123;BME280;2075;51.062;6.920;2023-04-01T07:44:16;-11665.53;;;-144.48;100.00
4123;BME280;2075;51.062;6.920;2023-04-01T07:47:29;-11665.53;;;-144.48;100.00
4123;BME280;2075;51.062;6.920;2023-04-01T07:50:24;-11413.53;;;-144.48;100.00
4123;BME280;2075;51.062;6.920;2023-04-01T07:53:17;-10657.44;;;-144.48;100.00
4123;BME280;2075;51.062;6.920;2023-04-01T07:56:10;-7883.59;;;-144.48;100.00
4123;BME280;2075;51.062;6.920;2023-04-01T07:59:06;-6874.34;;;-144.48;100.00
4123;BME280;2075;51.062;6.920;2023-04-01T08:02:35;-7631.31;;;-144.48;100.00
4123;BME280;2075;51.062;6.920;2023-04-01T08:05:26;-7379.00;;;-144.48;100.00
4123;BME280;2075;51.062;6.920;2023-04-01T08:08:19;-7379.00;;;-144.48;100.00
4123;BME280;2075;51.062;6.920;2023-04-01T08:11:39;-5864.78;;;-144.48;100.00
4123;BME280;2075;51.062;6.920;2023-04-01T08:14:53;-6117.19;;;-144.48;100.00
4123;BME280;2075;51.062;6.920;2023-04-01T08:18:05;-7126.69;;;-144.48;100.00
4123;BME280;2075;51.062;6.920;2023-04-01T08:20:57;-6621.97;;;-144.48;100.00
4123;BME280;2075;51.062;6.920;2023-04-01T08:23:46;-6874.34;;;-144.48;100.00
4123;BME280;2075;51.062;6.920;2023-04-01T08:26:35;-8640.34;;;-144.48;100.00
4123;BME280;2075;51.062;6.920;2023-04-01T08:29:29;-10153.28;;;-144.48;100.00
4123;BME280;2075;51.062;6.920;2023-04-01T08:32:22;-10657.44;;;-144.48;100.00
4123;BME280;2075;51.062;6.920;2023-04-01T08:35:18;-11413.53;;;-144.48;100.00
4123;BME280;2075;51.062;6.920;2023-04-01T08:38:11;-11667.00;;;-144.48;100.00
4123;BME280;2075;51.062;6.920;2023-04-01T08:41:00;-11667.00;;;-144.48;100.00
4123;BME280;2075;51.062;6.920;2023-04-01T08:44:34;-11667.00;;;-144.48;100.00
4123;BME280;2075;51.062;6.920;2023-04-01T08:47:38;-11413.53;;;-144.48;100.00
4123;BME280;2075;51.062;6.920;2023-04-01T08:50:51;-11161.53;;;-144.48;100.00
4123;BME280;2075;51.062;6.920;2023-04-01T08:54:08;-10657.44;;;-144.48;100.00
4123;BME280;2075;51.062;6.920;2023-04-01T08:57:03;-10153.28;;;-144.48;100.00
4123;BME280;2075;51.062;6.920;2023-04-01T08:59:58;-9396.91;;;-144.48;100.00
4123;BME280;2075;51.062;6.920;2023-04-01T09:03:37;-9901.19;;;-144.48;100.00
4123;BME280;2075;51.062;6.920;2023-04-01T09:06:39;-9144.72;;;-144.48;100.00
4123;BME280;2075;51.062;6.920;2023-04-01T09:09:56;-5107.41;;;-144.48;100.00
4123;BME280;2075;51.062;6.920;2023-04-01T09:13:18;-1065.06;;;-144.48;100.00
4123;BME280;2075;51.062;6.920;2023-04-01T09:16:24;-53.69;;;-144.48;100.00
4123;BME280;2075;51.062;6.920;2023-04-01T09:19:25;-812.25;;;-144.48;100.00
4123;BME280;2075;51.062;6.920;2023-04-01T09:22:27;-2581.53;;;-144.48;100.00
4123;BME280;2075;51.062;6.920;2023-04-01T09:25:38;-1823.38;;;-144.48;100.00
4123;BME280;2075;51.062;6.920;2023-04-01T09:28:28;-53.69;;;-144.48;100.00
4123;BME280;2075;51.062;6.920;2023-04-01T09:31:39;3488.53;;;-144.48;100.00
4123;BME280;2075;51.062;6.920;2023-04-01T09:34:54;6274.38;;;-144.48;100.00
4123;BME280;2075;51.062;6.920;2023-04-01T09:37:52;4754.53;;;-144.48;100.00
4123;BME280;2075;51.062;6.920;2023-04-01T09:40:46;5007.78;;;-144.48;100.00
4123;BME280;2075;51.062;6.920;2023-04-01T09:43:54;5007.78;;;-144.48;100.00
4123;BME280;2075;51.062;6.920;2023-04-01T09:46:58;3235.38;;;-144.48;100.00
4123;BME280;2075;51.062;6.920;2023-04-01T09:49:59;2223.00;;;-144.48;100.00
4123;BME280;2075;51.062;6.920;2023-04-01T09:53:00;1969.97;;;-144.48;100.00
4123;BME280;2075;51.062;6.920;2023-04-01T09:56:18;4501.28;;;-144.48;100.00
4123;BME280;2075;51.062;6.920;2023-04-01T10:13:43;5514.38;;;-144.48;100.00
4123;BME280;2075;51.062;6.920;2023-04-01T10:20:27;9316.19;;;-144.48;100.00
4123;BME280;2075;51.062;6.920;2023-04-01T10:23:44;10330.75;;;-144.48;100.00
4123;BME280;2075;51.062;6.920;2023-04-01T10:26:52;11345.63;;;-144.48;100.00
4123;BME280;2075;51.062;6.920;2023-04-01T10:30:48;12614.66;;;-144.48;100.00
4123;BME280;2075;51.062;6.920;2023-04-01T10:34:25;3235.38;;;-144.48;100.00
4123;BME280;2075;51.062;6.920;2023-04-01T10:37:33;-1317.84;;;-144.48;100.00
4123;BME280;2075;51.062;6.920;2023-04-01T10:40:41;705.03;;;-144.48;100.00
4123;BME280;2075;51.062;6.920;2023-04-01T10:44:30;3235.38;;;-144.48;100.00
4123;BME280;2075;51.062;6.920;2023-04-01T10:55:17;5514.38;;;-144.48;100.00
4123;BME280;2075;51.062;6.920;2023-04-01T10:58:42;7794.94;;;-144.48;100.00
4123;BME280;2075;51.062;6.920;2023-04-01T11:06:06;2982.25;;;-144.48;100.00
4123;BME280;2075;51.062;6.920;2023-04-01T11:13:00;6274.38;;;-144.48;100.00
4123;BME280;2075;51.062;6.920;2023-04-01T11:16:08;5767.69;;;-144.48;100.00
4123;BME280;2075;51.062;6.920;2023-04-01T11:19:15;12360.81;;;-144.48;100.00
4123;BME280;2075;51.062;6.920;2023-04-01T11:22:35;20493.53;;;-144.48;100.00
4123;BME280;2075;51.062;6.920;2023-04-01T11:25:39;22784.44;;;-144.48;100.00
4123;BME280;2075;51.062;6.920;2023-04-01T11:29:07;31963.94;;;-144.48;100.00
4123;BME280;2075;51.062;6.920;2023-04-01T11:32:06;28391.13;;;-144.48;100.00
4123;BME280;2075;51.062;6.920;2023-04-01T11:35:00;28391.13;;;-144.48;100.00
4123;BME280;2075;51.062;6.920;2023-04-01T11:37:53;30177.06;;;-144.48;100.00
4123;BME280;2075;51.062;6.920;2023-04-01T11:41:10;34007.25;;;-144.48;100.00
4123;BME280;2075;51.062;6.920;2023-04-01T11:44:24;37586.06;;;-144.48;100.00
4123;BME280;2075;51.062;6.920;2023-04-01T11:47:56;44498.88;;;-144.48;100.00
4123;BME280;2075;51.062;6.920;2023-04-01T11:50:57;56308.97;;;-144.48;100.00
4123;BME280;2075;51.062;6.920;2023-04-01T11:53:53;58367.09;;;-144.48;100.00
4123;BME280;2075;51.062;6.920;2023-04-01T11:57:05;65838.34;;;-144.48;100.00
4123;BME280;2075;51.062;6.920;2023-04-01T12:00:01;63260.19;;;-144.48;100.00
4123;BME280;2075;51.062;6.920;2023-04-01T12:06:14;49628.63;;;-144.48;100.00
4123;BME280;2075;51.062;6.920;2023-04-01T12:09:09;53481.06;;;-144.48;100.00
4123;BME280;2075;51.062;6.920;2023-04-01T12:12:08;46806.28;;;-144.48;100.00
4123;BME280;2075;51.062;6.920;2023-04-01T12:15:10;47832.31;;;-144.48;100.00
4123;BME280;2075;51.062;6.920;2023-04-01T12:18:06;55794.63;;;-144.48;100.00
4123;BME280;2075;51.062;6.920;2023-04-01T12:21:00;56823.38;;;-144.48;100.00
4123;BME280;2075;51.062;6.920;2023-04-01T12:24:04;63002.50;;;-144.48;100.00
4123;BME280;2075;51.062;6.920;2023-04-01T12:27:06;65322.56;;;-144.48;100.00
4123;BME280;2075;51.062;6.920;2023-04-01T12:33:23;54509.13;;;-144.48;100.00
4123;BME280;2075;51.062;6.920;2023-04-01T12:36:18;53481.06;;;-144.48;100.00
4123;BME280;2075;51.062;6.920;2023-04-01T12:39:19;51169.06;;;-144.48;100.00
4123;BME280;2075;51.062;6.920;2023-04-01T12:42:14;50142.03;;;-144.48;100.00
4123;BME280;2075;51.062;6.920;2023-04-01T12:45:17;49628.63;;;-144.48;100.00
4123;BME280;2075;51.062;6.920;2023-04-01T12:48:26;43217.66;;;-144.48;100.00
4123;BME280;2075;51.062;6.920;2023-04-01T12:51:24;37841.84;;;-144.48;100.00
4123;BME280;2075;51.062;6.920;2023-04-01T12:54:29;31198.03;;;-144.48;100.00
4123;BME280;2075;51.062;6.920;2023-04-01T12:57:37;31198.03;;;-144.48;100.00
4123;BME280;2075;51.062;6.920;2023-04-01T13:00:45;33751.78;;;-144.48;100.00
4123;BME280;2075;51.062;6.920;2023-04-01T13:03:44;30942.75;;;-144.48;100.00
4123;BME280;2075;51.062;6.920;2023-04-01T13:06:49;29921.88;;;-144.48;100.00
4123;BME280;2075;51.062;6.920;2023-04-01T13:09:45;23803.16;;;-144.48;100.00
4123;BME280;2075;51.062;6.920;2023-04-01T13:16:09;19730.22;;;-144.48;100.00
4123;BME280;2075;51.062;6.920;2023-04-01T13:19:03;19984.66;;;-144.48;100.00
4123;BME280;2075;51.062;6.920;2023-04-01T13:21:55;21257.00;;;-144.48;100.00
4123;BME280;2075;51.062;6.920;2023-04-01T13:24:49;21766.06;;;-144.48;100.00
4123;BME280;2075;51.062;6.920;2023-04-01T13:27:40;20239.06;;;-144.48;100.00
4123;BME280;2075;51.062;6.920;2023-04-01T13:30:30;17441.41;;;-144.48;100.00
4123;BME280;2075;51.062;6.920;2023-04-01T13:33:25;19984.66;;;-144.48;100.00
4123;BME280;2075;51.062;6.920;2023-04-01T13:36:24;14900.13;;;-144.48;100.00
4123;BME280;2075;51.062;6.920;2023-04-01T13:39:25;9062.59;;;-144.48;100.00
4123;BME280;2075;51.062;6.920;2023-04-01T13:42:17;6781.16;;;-144.48;100.00
4123;BME280;2075;51.062;6.920;2023-04-01T13:45:12;12107.00;;;-144.48;100.00
4123;BME280;2075;51.062;6.920;2023-04-01T13:48:18;13376.31;;;-144.48;100.00
4123;BME280;2075;51.062;6.920;2023-04-01T13:55:03;24057.88;;;-144.48;100.00
4123;BME280;2075;51.062;6.920;2023-04-01T14:01:13;40400.69;;;-144.48;100.00
4123;BME280;2075;51.062;6.920;2023-04-01T14:04:16;49885.31;;;-144.48;100.00
4123;BME280;2075;51.062;6.920;2023-04-01T14:07:13;47575.78;;;-144.48;100.00
4123;BME280;2075;51.062;6.920;2023-04-01T14:10:13;42961.47;;;-144.48;100.00
4123;BME280;2075;51.062;6.920;2023-04-01T14:13:07;34262.75;;;-144.48;100.00
4123;BME280;2075;51.062;6.920;2023-04-01T14:16:05;32474.66;;;-144.48;100.00
4123;BME280;2075;51.062;6.920;2023-04-01T14:19:07;31963.94;;;-144.48;100.00
4123;BME280;2075;51.062;6.920;2023-04-01T14:21:59;30177.06;;;-144.48;100.00
4123;BME280;2075;51.062;6.920;2023-04-01T14:25:16;28136.09;;;-144.48;100.00
4123;BME280;2075;51.062;6.920;2023-04-01T14:28:18;29411.56;;;-144.48;100.00
4123;BME280;2075;51.062;6.920;2023-04-01T14:31:20;29666.69;;;-144.48;100.00
4123;BME280;2075;51.062;6.920;2023-04-01T14:34:21;30177.06;;;-144.48;100.00
4123;BME280;2075;51.062;6.920;2023-04-01T14:37:15;19475.84;;;-144.48;100.00
4123;BME280;2075;51.062;6.920;2023-04-01T14:40:20;11091.88;;;-144.48;100.00
4123;BME280;2075;51.062;6.920;2023-04-01T14:43:31;7541.47;;;-144.48;100.00
4123;BME280;2075;51.062;6.920;2023-04-01T14:46:31;6021.03;;;-144.48;100.00
4123;BME280;2075;51.062;6.920;2023-04-01T14:49:28;3994.88;;;-144.48;100.00
4123;BME280;2075;51.062;6.920;2023-04-01T14:52:23;3488.53;;;-144.48;100.00
4123;BME280;2075;51.062;6.920;2023-04-01T14:55:27;7794.94;;;-144.48;100.00
4123;BME280;2075;51.062;6.920;2023-04-01T14:58:15;8301.94;;;-144.48;100.00
4123;BME280;2075;51.062;6.920;2023-04-01T15:01:13;6274.38;;;-144.48;100.00
4123;BME280;2075;51.062;6.920;2023-04-01T15:04:15;-53.69;;;-144.48;100.00
4123;BME280;2075;51.062;6.920;2023-04-01T15:11:01;-812.25;;;-144.48;100.00
4123;BME280;2075;51.062;6.920;2023-04-01T15:17:21;1716.94;;;-144.48;100.00
4123;BME280;2075;51.062;6.920;2023-04-01T15:20:22;3741.69;;;-144.48;100.00
4123;BME280;2075;51.062;6.920;2023-04-01T15:23:23;3994.88;;;-144.48;100.00
4123;BME280;2075;51.062;6.920;2023-04-01T15:26:46;6021.03;;;-144.48;100.00
4123;BME280;2075;51.062;6.920;2023-04-01T15:29:50;9316.19;;;-144.48;100.00
4123;BME280;2075;51.062;6.920;2023-04-01T15:32:49;13630.22;;;-144.48;100.00
4123;BME280;2075;51.062;6.920;2023-04-01T15:35:43;17949.91;;;-144.48;100.00
4123;BME280;2075;51.062;6.920;2023-04-01T15:38:36;16170.53;;;-144.48;100.00
4123;BME280;2075;51.062;6.920;2023-04-01T15:41:28;14392.13;;;-144.48;100.00
4123;BME280;2075;51.062;6.920;2023-04-01T15:44:46;16170.53;;;-144.48;100.00
4123;BME280;2075;51.062;6.920;2023-04-01T15:47:38;18204.19;;;-144.48;100.00
4123;BME280;2075;51.062;6.920;2023-04-01T15:50:48;17441.41;;;-144.48;100.00
4123;BME280;2075;51.062;6.920;2023-04-01T15:53:47;13884.19;;;-144.48;100.00
4123;BME280;2075;51.062;6.920;2023-04-01T15:56:47;17441.41;;;-144.48;100.00
4123;BME280;2075;51.062;6.920;2023-04-01T15:59:58;17187.19;;;-144.48;100.00
4123;BME280;2075;51.062;6.920;2023-04-01T16:03:23;18204.19;;;-144.48;100.00
4123;BME280;2075;51.062;6.920;2023-04-01T16:06:38;19221.47;;;-144.48;100.00
4123;BME280;2075;51.062;6.920;2023-04-01T16:09:53;20239.06;;;-144.48;100.00
4123;BME280;2075;51.062;6.920;2023-04-01T16:12:53;15408.25;;;-144.48;100.00
4123;BME280;2075;51.062;6.920;2023-04-01T16:15:51;11599.41;;;-144.48;100.00
4123;BME280;2075;51.062;6.920;2023-04-01T16:18:51;9569.81;;;-144.48;100.00
4123;BME280;2075;51.062;6.920;2023-04-01T16:21:45;7288.00;;;-144.48;100.00
4123;BME280;2075;51.062;6.920;2023-04-01T16:24:34;5767.69;;;-144.48;100.00
4123;BME280;2075;51.062;6.920;2023-04-01T16:27:28;5007.78;;;-144.48;100.00
4123;BME280;2075;51.062;6.920;2023-04-01T16:30:33;5007.78;;;-144.48;100.00